Time;durP1;ratioP1;P1;durP2;ratioP2;P2;SDS_P1;SDS_P2;PMS_P1;PMS_P2;Temp;Humidity;BMP_temperature;BMP_pressure;BME280_temperature;BME280_humidity;BME280_pressure;Samples;Min_cycle;Max_cycle;Signal;HPM_P1;HPM_P2
2023/05/27 00:00:21;;;;;;;13.18;5.55;;;;;;;9.93;75.57;102696.78;5054099;28;20025;-82
2023/05/27 00:02:46;;;;;;;14.20;5.30;;;;;;;9.97;75.47;102701.16;5039415;28;20028;-82
2023/05/27 00:05:12;;;;;;;16.98;5.93;;;;;;;9.83;75.87;102704.06;5031782;28;20035;-82
2023/05/27 00:07:37;;;;;;;17.70;6.15;;;;;;;9.89;75.86;102703.06;5057037;28;20063;-82
2023/05/27 00:10:03;;;;;;;14.82;5.40;;;;;;;9.85;75.67;102694.28;5047645;28;20032;-83
2023/05/27 00:12:28;;;;;;;12.90;5.88;;;;;;;9.76;76.24;102699.75;5047241;28;20560;-82
2023/05/27 00:14:55;;;;;;;15.52;5.72;;;;;;;9.71;76.45;102701.63;5055435;28;20385;-83
2023/05/27 00:17:20;;;;;;;15.45;5.68;;;;;;;9.69;76.56;102698.97;5033058;28;20066;-83
2023/05/27 00:19:47;;;;;;;16.88;6.15;;;;;;;9.62;76.61;102691.16;5046851;28;20363;-82
2023/05/27 00:22:13;;;;;;;15.68;5.82;;;;;;;9.57;76.81;102691.25;5043752;28;20025;-81
2023/05/27 00:24:39;;;;;;;11.52;5.00;;;;;;;9.57;76.71;102688.59;5042507;28;20028;-80
2023/05/27 00:27:08;;;;;;;15.75;6.00;;;;;;;9.55;76.66;102689.50;5042057;28;20029;-81
2023/05/27 00:29:35;;;;;;;16.83;6.00;;;;;;;9.47;77.15;102687.84;5037172;28;20036;-82
2023/05/27 00:32:02;;;;;;;11.32;5.80;;;;;;;9.41;77.24;102681.78;5062836;28;20052;-81
2023/05/27 00:34:28;;;;;;;14.15;5.90;;;;;;;9.50;77.16;102686.06;5050356;28;20059;-81
2023/05/27 00:36:54;;;;;;;16.88;6.22;;;;;;;9.49;77.07;102685.19;5041832;28;20250;-83
2023/05/27 00:39:20;;;;;;;17.15;5.72;;;;;;;9.52;77.14;102684.25;5053448;28;20024;-82
2023/05/27 00:41:48;;;;;;;15.50;6.68;;;;;;;9.35;77.81;102685.41;5033207;28;20066;-82
2023/05/27 00:44:14;;;;;;;15.55;5.90;;;;;;;9.29;77.84;102680.19;5034053;28;20203;-82
2023/05/27 00:46:39;;;;;;;13.70;5.93;;;;;;;9.28;77.94;102682.84;5046875;28;20359;-82
2023/05/27 00:49:05;;;;;;;12.40;5.00;;;;;;;9.23;78.01;102689.13;5027868;28;20028;-83
2023/05/27 00:51:31;;;;;;;13.23;5.80;;;;;;;9.18;78.43;102679.47;5053733;28;20055;-82
2023/05/27 00:53:56;;;;;;;17.27;6.28;;;;;;;9.10;78.74;102684.91;5031563;28;20115;-82
2023/05/27 00:56:22;;;;;;;13.05;5.93;;;;;;;9.10;79.01;102684.03;5036615;28;20048;-82
2023/05/27 00:58:47;;;;;;;10.65;5.07;;;;;;;9.15;78.83;102685.69;5033972;28;20028;-82
2023/05/27 01:01:13;;;;;;;13.18;5.45;;;;;;;9.05;79.29;102680.56;5059096;28;20036;-82
2023/05/27 01:03:41;;;;;;;10.82;5.13;;;;;;;9.05;79.29;102675.25;5039075;28;20024;-82
2023/05/27 01:06:16;;;;;;;17.17;5.72;;;;;;;9.04;79.26;102678.81;5057423;28;20033;-83
2023/05/27 01:08:57;;;;;;;14.43;5.78;;;;;;;8.92;79.53;102672.78;5040857;28;20054;-83
2023/05/27 01:11:29;;;;;;;14.15;5.82;;;;;;;8.90;79.99;102669.28;5054068;28;20033;-82
2023/05/27 01:14:04;;;;;;;18.95;5.88;;;;;;;8.84;80.08;102660.53;5059563;28;20140;-82
2023/05/27 01:16:31;;;;;;;15.45;5.97;;;;;;;8.85;80.49;102673.78;5052913;28;20033;-83
2023/05/27 01:19:02;;;;;;;14.55;5.57;;;;;;;8.82;80.96;102676.50;5057354;28;20493;-82
2023/05/27 01:21:30;;;;;;;11.13;5.68;;;;;;;8.72;81.45;102674.84;5050526;28;20302;-81
2023/05/27 01:24:02;;;;;;;13.15;5.60;;;;;;;8.75;81.50;102674.81;5051292;28;20610;-82
2023/05/27 01:26:27;;;;;;;11.93;5.28;;;;;;;8.61;81.90;102666.16;5054397;28;20118;-83
2023/05/27 01:28:53;;;;;;;19.10;6.28;;;;;;;8.56;82.27;102660.91;5057591;28;20111;-82
2023/05/27 01:31:23;;;;;;;16.27;6.45;;;;;;;8.56;82.41;102657.38;5056416;28;20030;-82
2023/05/27 01:34:06;;;;;;;14.52;6.50;;;;;;;8.51;82.64;102653.91;5057781;28;20032;-82
2023/05/27 01:36:39;;;;;;;17.40;6.07;;;;;;;8.41;83.42;102667.31;5062117;28;20499;-82
2023/05/27 01:39:07;;;;;;;13.87;6.20;;;;;;;8.40;83.69;102654.03;5061266;28;20047;-81
2023/05/27 01:41:34;;;;;;;16.45;6.18;;;;;;;8.46;83.38;102665.47;5042711;28;20090;-80
2023/05/27 01:44:00;;;;;;;16.00;5.65;;;;;;;8.35;83.78;102658.50;5052829;28;20024;-81
2023/05/27 01:46:26;;;;;;;14.25;6.00;;;;;;;8.32;83.90;102664.75;5058530;28;20085;-81
2023/05/27 01:48:51;;;;;;;14.70;6.07;;;;;;;8.32;83.96;102646.16;5055653;28;20036;-82
2023/05/27 01:51:17;;;;;;;14.15;6.40;;;;;;;8.36;83.77;102658.50;5063962;28;20039;-81
2023/05/27 01:53:42;;;;;;;16.38;6.20;;;;;;;8.30;84.22;102657.69;5038483;28;20029;-81
2023/05/27 01:56:07;;;;;;;17.85;6.00;;;;;;;8.23;84.66;102654.22;5051556;28;20032;-82
2023/05/27 01:58:33;;;;;;;13.30;5.30;;;;;;;8.15;85.25;102648.13;5033871;28;20025;-82
2023/05/27 02:00:58;;;;;;;14.88;6.43;;;;;;;8.14;85.25;102643.72;5060379;28;20036;-82
2023/05/27 02:03:23;;;;;;;14.75;5.82;;;;;;;8.11;85.62;102633.16;5057846;28;20079;-81
2023/05/27 02:05:49;;;;;;;15.80;6.43;;;;;;;8.07;85.88;102642.94;5056442;28;20036;-81
2023/05/27 02:08:14;;;;;;;16.77;5.97;;;;;;;8.01;85.97;102644.78;5047648;28;20017;-81
2023/05/27 02:10:40;;;;;;;16.58;6.70;;;;;;;7.97;86.67;102642.16;5038085;28;20086;-81
2023/05/27 02:13:05;;;;;;;17.33;6.43;;;;;;;7.96;86.19;102644.81;5046438;28;20178;-82
2023/05/27 02:15:31;;;;;;;13.43;5.57;;;;;;;7.89;86.84;102644.00;5050841;28;20120;-81
2023/05/27 02:17:56;;;;;;;17.08;6.75;;;;;;;7.85;87.16;102644.94;5054576;28;20025;-81
2023/05/27 02:20:22;;;;;;;14.00;6.28;;;;;;;7.79;87.53;102637.06;5036282;28;20123;-82
2023/05/27 02:22:49;;;;;;;13.15;5.97;;;;;;;7.77;88.11;102643.25;5055258;28;20028;-82
2023/05/27 02:25:15;;;;;;;14.18;5.90;;;;;;;7.80;88.00;102649.41;5049378;28;20024;-82
2023/05/27 02:27:41;;;;;;;13.32;5.93;;;;;;;7.72;88.29;102643.31;5033699;28;20031;-82
2023/05/27 02:30:07;;;;;;;16.52;6.90;;;;;;;7.73;88.65;102642.41;5056921;28;20024;-82
2023/05/27 02:32:33;;;;;;;15.38;6.90;;;;;;;7.74;88.55;102644.19;5056463;28;20408;-82
2023/05/27 02:34:58;;;;;;;18.05;6.20;;;;;;;7.65;89.02;102646.91;5055688;28;20032;-82
2023/05/27 02:37:24;;;;;;;14.65;6.30;;;;;;;7.69;88.78;102659.22;5057667;28;20095;-82
2023/05/27 02:39:52;;;;;;;12.77;6.35;;;;;;;7.67;88.98;102655.72;5055315;28;20031;-82
2023/05/27 02:42:18;;;;;;;16.75;6.75;;;;;;;7.54;89.70;102649.66;5047943;28;20494;-82
2023/05/27 02:44:43;;;;;;;14.80;6.78;;;;;;;7.61;89.56;102648.72;5052643;28;20024;-83
2023/05/27 02:47:08;;;;;;;13.27;6.05;;;;;;;7.57;89.96;102656.72;5050605;28;20067;-82
2023/05/27 02:49:34;;;;;;;16.23;6.65;;;;;;;7.52;90.04;102653.22;5055460;28;20078;-82
2023/05/27 02:51:59;;;;;;;16.60;6.85;;;;;;;7.46;90.72;102657.69;5048166;28;20025;-82
2023/05/27 02:54:25;;;;;;;17.05;6.80;;;;;;;7.37;90.84;102644.53;5047409;28;20112;-82
2023/05/27 02:56:50;;;;;;;15.02;6.35;;;;;;;7.33;91.31;102648.09;5060514;28;20028;-80
2023/05/27 02:59:15;;;;;;;15.82;6.70;;;;;;;7.35;91.46;102650.72;5061396;28;20326;-82
2023/05/27 03:01:41;;;;;;;17.02;6.95;;;;;;;7.25;91.86;102649.94;5057203;28;20524;-81
2023/05/27 03:04:06;;;;;;;12.00;5.90;;;;;;;7.30;91.60;102650.75;5053356;28;20021;-81
2023/05/27 03:06:32;;;;;;;16.58;6.97;;;;;;;7.23;92.52;102660.56;5060464;28;22316;-81
2023/05/27 03:08:57;;;;;;;14.15;6.70;;;;;;;7.20;92.50;102657.03;5053127;28;20079;-82
2023/05/27 03:11:22;;;;;;;14.02;6.18;;;;;;;7.18;92.42;102659.69;5052915;28;20579;-81
2023/05/27 03:13:48;;;;;;;16.70;7.30;;;;;;;7.20;92.76;102659.69;5048136;28;20099;-81
2023/05/27 03:16:13;;;;;;;15.48;6.55;;;;;;;7.22;92.60;102665.84;5053888;28;20033;-82
2023/05/27 03:18:39;;;;;;;15.70;6.90;;;;;;;7.15;93.44;102650.91;5044060;28;20409;-81
2023/05/27 03:21:05;;;;;;;16.35;7.45;;;;;;;7.08;93.32;102655.34;5054438;28;20834;-82
2023/05/27 03:23:30;;;;;;;13.23;6.65;;;;;;;7.04;93.87;102652.75;5028977;28;20029;-81
2023/05/27 03:25:55;;;;;;;13.07;6.75;;;;;;;7.05;93.88;102660.66;5042547;28;20029;-81
2023/05/27 03:28:21;;;;;;;19.25;7.47;;;;;;;6.99;94.42;102658.94;5051330;28;20059;-82
2023/05/27 03:30:46;;;;;;;18.98;6.88;;;;;;;7.12;93.72;102648.28;5046356;28;20406;-82
2023/05/27 03:33:11;;;;;;;18.00;6.90;;;;;;;7.03;94.37;102645.69;5046033;28;20053;-82
2023/05/27 03:35:37;;;;;;;12.70;6.47;;;;;;;7.02;94.58;102643.91;5043710;28;20012;-83
2023/05/27 03:38:02;;;;;;;15.98;7.13;;;;;;;6.99;94.38;102650.13;5049149;28;20032;-82
2023/05/27 03:40:28;;;;;;;16.83;7.50;;;;;;;6.98;94.71;102641.31;5044441;28;20024;-82
2023/05/27 03:42:53;;;;;;;19.77;7.20;;;;;;;7.05;94.82;102647.44;5051311;28;20036;-81
2023/05/27 03:45:19;;;;;;;14.07;6.97;;;;;;;7.02;94.98;102635.97;5045846;28;20044;-82
2023/05/27 03:47:44;;;;;;;20.90;6.85;;;;;;;6.98;95.40;102640.41;5055643;28;20028;-81
2023/05/27 03:50:10;;;;;;;16.35;7.60;;;;;;;6.95;95.43;102641.34;5046422;28;20508;-80
2023/05/27 03:52:36;;;;;;;15.80;7.60;;;;;;;6.91;95.49;102623.72;5051177;28;20470;-82
2023/05/27 03:55:01;;;;;;;16.27;6.95;;;;;;;6.89;96.20;102624.59;5026538;28;20442;-81
2023/05/27 03:57:26;;;;;;;18.38;7.72;;;;;;;6.93;95.47;102627.22;5060152;28;20119;-81
2023/05/27 03:59:51;;;;;;;13.75;6.97;;;;;;;6.92;95.95;102628.09;5056219;28;20037;-80
2023/05/27 04:02:17;;;;;;;18.25;7.10;;;;;;;6.95;96.25;102624.56;5050779;28;20268;-81
2023/05/27 04:04:42;;;;;;;14.25;7.18;;;;;;;6.93;96.50;102629.84;5046761;28;20444;-80
2023/05/27 04:07:08;;;;;;;14.80;7.50;;;;;;;6.92;96.45;102629.88;5042404;28;20059;-81
2023/05/27 04:09:33;;;;;;;15.63;7.40;;;;;;;6.89;96.74;102627.25;5034478;28;20025;-82
2023/05/27 04:11:58;;;;;;;19.58;7.82;;;;;;;6.83;97.10;102614.06;5031089;28;20036;-81
2023/05/27 04:14:24;;;;;;;17.42;7.38;;;;;;;6.87;97.13;102631.69;5036152;28;20425;-81
2023/05/27 04:16:49;;;;;;;18.52;7.32;;;;;;;6.90;97.16;102616.66;5050801;28;20090;-81
2023/05/27 04:19:14;;;;;;;16.65;7.85;;;;;;;6.92;97.05;102624.59;5057496;28;20027;-82
2023/05/27 04:21:40;;;;;;;16.35;6.95;;;;;;;6.90;97.34;102621.97;5051231;28;20388;-80
2023/05/27 04:24:06;;;;;;;20.85;8.00;;;;;;;6.96;97.01;102621.91;5048169;28;20025;-81
2023/05/27 04:26:32;;;;;;;16.98;6.95;;;;;;;6.97;96.94;102631.59;5030107;28;20079;-83
2023/05/27 04:29:04;;;;;;;16.20;7.18;;;;;;;6.99;97.21;102623.66;5058223;28;20474;-81
2023/05/27 04:31:29;;;;;;;20.55;7.95;;;;;;;6.92;97.49;102616.66;5029301;28;20032;-82
2023/05/27 04:33:55;;;;;;;18.83;8.02;;;;;;;6.97;97.17;102615.72;5055137;28;20100;-81
2023/05/27 04:36:25;;;;;;;19.15;8.27;;;;;;;7.11;96.96;102620.91;5047104;28;20051;-81
2023/05/27 04:38:51;;;;;;;16.73;7.55;;;;;;;7.10;96.95;102618.25;5047723;28;20409;-82
2023/05/27 04:41:16;;;;;;;17.27;8.15;;;;;;;7.09;97.00;102614.75;5048860;28;20035;-82
2023/05/27 04:43:42;;;;;;;17.58;7.60;;;;;;;7.11;97.06;102606.81;5030964;28;20123;-82
2023/05/27 04:46:07;;;;;;;20.80;8.52;;;;;;;7.17;97.20;102609.38;5052085;28;20096;-82
2023/05/27 04:48:35;;;;;;;16.48;7.82;;;;;;;7.19;97.40;102612.88;5032612;28;20033;-82
2023/05/27 04:51:00;;;;;;;16.90;7.65;;;;;;;7.22;96.99;102607.56;5049606;28;20111;-83
2023/05/27 04:53:26;;;;;;;16.63;7.47;;;;;;;7.27;97.10;102600.47;5052694;28;20103;-82
2023/05/27 04:55:51;;;;;;;15.60;7.57;;;;;;;7.35;96.90;102603.91;5061180;28;20024;-83
2023/05/27 04:58:16;;;;;;;14.75;7.50;;;;;;;7.40;96.83;102602.13;5060457;28;20355;-82
2023/05/27 05:01:00;;;;;;;23.73;7.57;;;;;;;7.51;96.35;102598.47;5049272;28;20056;-82
2023/05/27 05:03:39;;;;;;;16.27;7.67;;;;;;;7.55;96.16;102602.84;5065327;28;20075;-82
2023/05/27 05:06:05;;;;;;;17.25;7.95;;;;;;;7.60;95.67;102598.38;5063939;28;20377;-81
2023/05/27 05:08:31;;;;;;;15.85;7.45;;;;;;;7.68;95.66;102597.41;5062037;28;20313;-81
2023/05/27 05:10:56;;;;;;;18.20;7.97;;;;;;;7.70;95.74;102594.75;5052472;28;20461;-81
2023/05/27 05:13:22;;;;;;;15.98;7.57;;;;;;;7.85;95.43;102598.97;5060478;28;20067;-83
2023/05/27 05:15:47;;;;;;;16.23;8.18;;;;;;;7.92;95.14;102596.25;5063764;28;20048;-81
2023/05/27 05:18:13;;;;;;;19.17;8.25;;;;;;;7.98;94.58;102596.19;5057908;28;20024;-82
2023/05/27 05:20:39;;;;;;;18.10;7.82;;;;;;;7.95;94.80;102596.22;5046058;28;20024;-82
2023/05/27 05:23:06;;;;;;;17.15;7.70;;;;;;;8.10;95.06;102599.56;5056228;28;20473;-82
2023/05/27 05:25:37;;;;;;;18.90;8.05;;;;;;;8.09;94.00;102595.16;5037788;28;20369;-81
2023/05/27 05:28:03;;;;;;;15.00;7.78;;;;;;;8.20;93.86;102594.16;5060240;28;20067;-81
2023/05/27 05:30:30;;;;;;;17.75;8.00;;;;;;;8.37;93.51;102588.63;5052737;28;20025;-81
2023/05/27 05:32:55;;;;;;;16.90;7.65;;;;;;;8.44;93.45;102579.72;5054699;28;20032;-81
2023/05/27 05:35:20;;;;;;;17.75;8.00;;;;;;;8.51;92.36;102583.13;5040932;28;20715;-82
2023/05/27 05:37:45;;;;;;;19.83;8.10;;;;;;;8.67;92.42;102575.81;5058240;28;20032;-80
2023/05/27 05:40:11;;;;;;;19.38;8.55;;;;;;;8.73;91.66;102583.69;5061408;28;20028;-82
2023/05/27 05:42:36;;;;;;;19.58;8.18;;;;;;;8.84;91.09;102584.41;5062044;28;20033;-82
2023/05/27 05:45:03;;;;;;;13.55;7.72;;;;;;;8.89;90.99;102587.84;5054080;28;20385;-82
2023/05/27 05:47:30;;;;;;;15.95;7.57;;;;;;;9.14;90.50;102590.09;5060410;28;20024;-81
2023/05/27 05:49:55;;;;;;;21.13;8.38;;;;;;;9.12;89.41;102583.97;5042870;28;20044;-83
2023/05/27 05:52:20;;;;;;;17.90;7.93;;;;;;;9.28;89.51;102577.47;5059064;28;20039;-81
2023/05/27 05:54:46;;;;;;;16.95;7.60;;;;;;;9.52;88.94;102573.47;5054665;28;20021;-82
2023/05/27 05:57:11;;;;;;;16.15;7.93;;;;;;;9.72;88.26;102583.72;5042607;28;20056;-81
2023/05/27 05:59:37;;;;;;;17.13;7.97;;;;;;;9.91;86.79;102582.47;5049551;28;20029;-84
2023/05/27 06:02:02;;;;;;;17.73;7.72;;;;;;;10.14;86.01;102578.44;5060622;28;20032;-82
2023/05/27 06:04:28;;;;;;;17.70;7.20;;;;;;;10.31;84.65;102570.13;5052166;28;20024;-80
2023/05/27 06:06:53;;;;;;;17.85;7.68;;;;;;;10.48;83.38;102567.94;5060411;28;20028;-82
2023/05/27 06:09:18;;;;;;;15.68;7.32;;;;;;;10.66;83.29;102566.66;5048776;28;20491;-81
2023/05/27 06:11:44;;;;;;;16.00;7.63;;;;;;;10.78;81.81;102565.47;5036858;28;20132;-82
2023/05/27 06:14:09;;;;;;;16.27;7.63;;;;;;;10.94;81.10;102567.72;5055202;28;20040;-82
2023/05/27 06:16:39;;;;;;;16.98;7.05;;;;;;;11.16;80.19;102561.84;5059350;28;20040;-82
2023/05/27 06:19:05;;;;;;;17.90;8.27;;;;;;;11.23;79.11;102571.44;5049573;28;20035;-81
2023/05/27 06:21:32;;;;;;;14.82;7.30;;;;;;;11.38;79.13;102562.19;5032059;28;20079;-81
2023/05/27 06:23:58;;;;;;;16.83;7.45;;;;;;;11.42;78.28;102555.84;5044360;28;20462;-82
2023/05/27 06:26:24;;;;;;;15.70;7.97;;;;;;;11.43;77.39;102558.44;5053565;28;20044;-82
2023/05/27 06:28:50;;;;;;;18.85;6.95;;;;;;;11.58;77.96;102556.28;5025448;28;20358;-82
2023/05/27 06:31:15;;;;;;;17.38;7.80;;;;;;;11.91;77.84;102565.16;5048753;28;20046;-81
2023/05/27 06:33:41;;;;;;;19.92;7.50;;;;;;;12.13;77.04;102562.75;5043544;28;20079;-81
2023/05/27 06:36:06;;;;;;;14.65;7.47;;;;;;;12.20;75.06;102565.16;5054859;28;20082;-83
2023/05/27 06:38:32;;;;;;;14.38;7.20;;;;;;;12.14;74.94;102552.00;5056671;28;20024;-83
2023/05/27 06:40:57;;;;;;;15.13;7.35;;;;;;;12.08;74.84;102541.53;5060037;28;20028;-82
2023/05/27 06:43:23;;;;;;;14.93;7.55;;;;;;;12.28;75.11;102540.91;5060376;28;20028;-82
2023/05/27 06:45:48;;;;;;;16.33;7.60;;;;;;;12.58;74.95;102546.19;5033493;28;20042;-82
2023/05/27 06:48:13;;;;;;;15.55;7.30;;;;;;;12.68;73.39;102542.31;5051860;28;20108;-82
2023/05/27 06:50:39;;;;;;;16.13;7.32;;;;;;;12.89;71.79;102546.06;5053469;28;20021;-82
2023/05/27 06:53:04;;;;;;;18.02;7.25;;;;;;;12.89;71.30;102546.06;5056903;28;20032;-82
2023/05/27 06:55:31;;;;;;;16.75;7.85;;;;;;;12.99;70.49;102533.28;5051366;28;20227;-82
2023/05/27 06:57:56;;;;;;;20.70;8.82;;;;;;;13.00;69.90;102540.34;5047015;28;20043;-82
2023/05/27 07:00:22;;;;;;;18.10;8.07;;;;;;;13.03;70.05;102546.47;5056298;28;20025;-82
2023/05/27 07:02:47;;;;;;;17.52;7.65;;;;;;;13.13;70.50;102547.06;5048660;28;20060;-83
2023/05/27 07:05:12;;;;;;;16.90;8.13;;;;;;;13.44;70.18;102538.84;5056681;28;20024;-81
2023/05/27 07:07:38;;;;;;;17.58;7.40;;;;;;;13.43;68.75;102542.47;5058685;28;20051;-82
2023/05/27 07:10:03;;;;;;;17.33;7.75;;;;;;;13.63;69.27;102544.41;5054338;28;20477;-80
2023/05/27 07:12:28;;;;;;;14.02;7.78;;;;;;;13.91;68.03;102542.44;5034607;28;20132;-81
2023/05/27 07:14:54;;;;;;;16.02;8.07;;;;;;;14.10;68.25;102541.75;5050230;28;20021;-81
2023/05/27 07:17:19;;;;;;;15.65;7.63;;;;;;;14.30;66.21;102528.47;5048688;28;20076;-81
2023/05/27 07:19:44;;;;;;;13.98;7.15;;;;;;;14.49;64.49;102525.94;5030634;28;21818;-82
2023/05/27 07:22:10;;;;;;;19.63;7.75;;;;;;;14.76;64.21;102525.75;5053519;28;20059;-80
2023/05/27 07:24:35;;;;;;;14.57;7.93;;;;;;;14.97;64.29;102532.88;5048070;28;20453;-82
2023/05/27 07:27:02;;;;;;;15.35;7.82;;;;;;;15.16;62.47;102532.94;5053481;28;20032;-81
2023/05/27 07:29:27;;;;;;;15.88;7.13;;;;;;;15.51;60.80;102534.09;5053974;28;20031;-81
2023/05/27 07:31:53;;;;;;;13.80;7.00;;;;;;;15.94;60.91;102529.47;5053432;28;20033;-81
2023/05/27 07:34:20;;;;;;;17.63;7.70;;;;;;;16.24;58.81;102535.22;5050117;28;20082;-82
2023/05/27 07:36:45;;;;;;;18.65;7.97;;;;;;;16.41;57.99;102529.91;5047803;28;20071;-81
2023/05/27 07:39:11;;;;;;;16.95;7.75;;;;;;;16.43;56.63;102516.41;5051127;28;20021;-81
2023/05/27 07:41:36;;;;;;;15.70;7.47;;;;;;;17.00;56.25;102522.50;5058599;28;20036;-81
2023/05/27 07:44:02;;;;;;;17.70;7.78;;;;;;;17.42;54.41;102518.53;5048523;28;20094;-80
2023/05/27 07:46:27;;;;;;;16.42;7.57;;;;;;;17.63;54.38;102521.91;5027633;28;20763;-81
2023/05/27 07:48:53;;;;;;;20.92;8.05;;;;;;;18.01;52.57;102511.75;5055512;28;20281;-81
2023/05/27 07:51:18;;;;;;;17.20;7.68;;;;;;;18.29;51.37;102510.19;5051804;28;20484;-81
2023/05/27 07:53:43;;;;;;;17.58;7.72;;;;;;;18.18;50.60;102502.72;5028640;28;20029;-83
2023/05/27 07:56:09;;;;;;;15.38;7.43;;;;;;;18.29;50.06;102508.38;5048535;28;20043;-80
2023/05/27 07:58:34;;;;;;;15.90;7.90;;;;;;;18.62;50.35;102497.47;5056193;28;20025;-81
2023/05/27 08:00:59;;;;;;;14.27;7.03;;;;;;;19.20;49.29;102503.06;5043202;28;20028;-82
2023/05/27 08:03:25;;;;;;;15.90;7.65;;;;;;;19.58;47.54;102506.09;5055763;28;20032;-82
2023/05/27 08:05:50;;;;;;;14.52;7.03;;;;;;;19.89;46.21;102508.63;5035665;28;20602;-82
2023/05/27 08:08:16;;;;;;;16.40;7.43;;;;;;;20.10;45.49;102500.09;5048212;28;20457;-82
2023/05/27 08:10:45;;;;;;;13.20;7.18;;;;;;;20.86;45.35;102503.16;5039328;28;20139;-82
2023/05/27 08:13:11;;;;;;;16.20;7.35;;;;;;;21.01;43.08;102492.25;5055359;28;20037;-82
2023/05/27 08:15:38;;;;;;;17.60;7.07;;;;;;;21.02;43.39;102485.84;5055692;28;20052;-82
2023/05/27 08:18:03;;;;;;;16.85;7.38;;;;;;;21.20;43.02;102481.03;5054909;28;20124;-82
2023/05/27 08:20:28;;;;;;;14.95;6.88;;;;;;;21.58;42.98;102484.63;5053488;28;20087;-82
2023/05/27 08:22:54;;;;;;;16.88;7.80;;;;;;;21.70;41.12;102476.59;5043649;28;20112;-81
2023/05/27 08:25:19;;;;;;;16.52;8.02;;;;;;;21.82;40.51;102467.53;5035522;28;20029;-81
2023/05/27 08:27:46;;;;;;;14.07;6.57;;;;;;;21.89;40.26;102471.56;5055657;28;20157;-82
2023/05/27 08:30:13;;;;;;;13.50;7.22;;;;;;;22.44;39.83;102463.91;5028320;28;20032;-81
2023/05/27 08:32:38;;;;;;;15.35;7.07;;;;;;;22.44;39.49;102464.75;5050646;28;20035;-81
2023/05/27 08:35:04;;;;;;;16.10;7.40;;;;;;;22.63;38.87;102462.38;5038182;28;20036;-82
2023/05/27 08:37:31;;;;;;;15.43;7.30;;;;;;;23.39;40.01;102446.53;5054872;28;20028;-81
2023/05/27 08:39:57;;;;;;;14.80;6.65;;;;;;;23.52;37.61;102449.16;5046422;28;20992;-82
2023/05/27 08:42:23;;;;;;;19.60;7.40;;;;;;;24.19;36.35;102443.63;5046546;28;20055;-81
2023/05/27 08:44:50;;;;;;;16.80;6.78;;;;;;;24.62;34.97;102440.03;5049772;28;20045;-82
2023/05/27 08:47:15;;;;;;;14.48;6.75;;;;;;;24.94;34.79;102442.72;5055403;28;20044;-82
2023/05/27 08:49:41;;;;;;;17.48;7.45;;;;;;;25.17;34.77;102450.78;5050925;28;20025;-82
2023/05/27 08:52:09;;;;;;;15.75;6.95;;;;;;;25.40;34.61;102440.56;5048991;28;20115;-82
2023/05/27 08:54:36;;;;;;;17.90;7.00;;;;;;;25.78;32.76;102442.63;5047359;28;20060;-82
2023/05/27 08:57:07;;;;;;;13.63;7.13;;;;;;;25.72;33.11;102432.25;5036330;28;20033;-82
2023/05/27 08:59:32;;;;;;;13.77;7.05;;;;;;;25.98;31.92;102432.63;5028517;28;20099;-82
2023/05/27 09:01:58;;;;;;;17.08;7.10;;;;;;;26.19;32.00;102425.19;5049097;28;20032;-82
2023/05/27 09:04:25;;;;;;;11.43;6.20;;;;;;;26.47;31.92;102418.06;5051575;28;20029;-82
2023/05/27 09:06:50;;;;;;;11.98;6.80;;;;;;;26.60;31.14;102417.75;5055082;28;20291;-82
2023/05/27 09:09:18;;;;;;;15.00;6.88;;;;;;;27.01;31.63;102418.44;5051385;28;20486;-81
2023/05/27 09:11:44;;;;;;;11.77;6.50;;;;;;;27.50;29.75;102403.56;5035721;28;20036;-83
2023/05/27 09:14:20;;;;;;;13.00;6.60;;;;;;;27.29;30.25;102420.22;5052960;28;20044;-83
2023/05/27 09:16:45;;;;;;;13.30;6.88;;;;;;;27.34;29.49;102410.69;5056841;28;20498;-82
2023/05/27 09:19:18;;;;;;;13.18;6.38;;;;;;;27.76;29.84;102405.66;5052872;28;20098;-82
2023/05/27 09:21:44;;;;;;;16.42;6.70;;;;;;;28.10;28.50;102408.59;5054576;28;20215;-82
2023/05/27 09:24:10;;;;;;;14.48;7.03;;;;;;;28.76;27.82;102402.72;5028939;28;20025;-81
2023/05/27 09:26:36;;;;;;;15.00;6.32;;;;;;;29.02;27.93;102408.22;5035311;28;20020;-82
2023/05/27 09:29:06;;;;;;;16.15;6.32;;;;;;;29.02;26.80;102401.88;5041996;28;20036;-82
2023/05/27 09:31:38;;;;;;;13.20;6.47;;;;;;;29.06;26.70;102405.16;5058888;28;20031;-83
2023/05/27 09:34:12;;;;;;;15.32;6.45;;;;;;;29.52;27.44;102403.88;5029492;28;20565;-81
2023/05/27 09:36:48;;;;;;;16.63;7.32;;;;;;;29.66;27.17;102399.66;5036634;28;20178;-85
2023/05/27 09:39:15;;;;;;;16.42;6.55;;;;;;;29.92;26.60;102383.09;5053300;28;20024;-81
2023/05/27 09:41:42;;;;;;;11.98;6.07;;;;;;;30.31;25.22;102385.22;5032363;28;20027;-83
2023/05/27 09:44:08;;;;;;;13.15;6.72;;;;;;;29.78;25.81;102385.47;5054607;28;20028;-82
2023/05/27 09:46:35;;;;;;;13.95;5.93;;;;;;;30.19;26.89;102379.22;5056801;28;20040;-81
2023/05/27 09:49:05;;;;;;;13.70;6.53;;;;;;;30.40;25.69;102379.59;5053926;28;20029;-83
2023/05/27 09:51:32;;;;;;;13.73;6.47;;;;;;;30.44;24.70;102388.34;5059617;28;20028;-82
2023/05/27 09:53:58;;;;;;;12.27;6.50;;;;;;;30.55;24.80;102377.00;5053473;28;20473;-81
2023/05/27 09:56:26;;;;;;;17.08;6.95;;;;;;;30.85;24.37;102375.47;5047470;28;20037;-81
2023/05/27 09:58:53;;;;;;;14.80;6.45;;;;;;;31.06;24.05;102374.91;5050720;28;20032;-83
2023/05/27 10:01:20;;;;;;;17.77;6.75;;;;;;;31.83;23.37;102361.31;5057209;28;20025;-81
2023/05/27 10:03:46;;;;;;;16.73;6.65;;;;;;;32.03;23.41;102370.00;5056813;28;20098;-82
2023/05/27 10:06:15;;;;;;;12.48;5.85;;;;;;;32.13;23.79;102367.00;5028047;28;20508;-82
2023/05/27 10:08:42;;;;;;;14.15;7.28;;;;;;;32.43;22.24;102374.34;5030452;28;20080;-83
2023/05/27 10:11:07;;;;;;;13.57;6.30;;;;;;;32.61;21.69;102364.91;5044355;28;20406;-81
2023/05/27 10:13:33;;;;;;;11.02;5.28;;;;;;;33.12;22.37;102363.16;5027036;28;20045;-82
2023/05/27 10:15:58;;;;;;;9.80;5.03;;;;;;;33.83;22.32;102346.03;5057026;28;20051;-82
2023/05/27 10:18:27;;;;;;;11.43;5.97;;;;;;;33.14;20.60;102358.31;5032865;28;20116;-83
2023/05/27 10:20:53;;;;;;;12.77;6.05;;;;;;;33.69;21.33;102354.19;5026580;28;20028;-83
2023/05/27 10:23:25;;;;;;;12.73;5.93;;;;;;;33.70;21.95;102344.84;5044739;28;20083;-83
2023/05/27 10:26:11;;;;;;;12.23;5.93;;;;;;;34.41;21.52;102356.00;5054043;28;20401;-83
2023/05/27 10:28:39;;;;;;;11.73;5.72;;;;;;;34.09;20.63;102340.81;5045500;28;20040;-83
2023/05/27 10:31:10;;;;;;;10.00;5.13;;;;;;;34.73;21.01;102345.41;5026696;28;20120;-83
2023/05/27 10:33:40;;;;;;;21.58;11.20;;;;;;;34.94;20.35;102341.69;5038727;28;20411;-83
2023/05/27 10:36:11;;;;;;;13.38;5.80;;;;;;;33.46;20.50;102332.22;5059193;28;20040;-83
2023/05/27 10:38:37;;;;;;;10.45;5.88;;;;;;;32.43;21.08;102341.28;5044372;28;20031;-83
2023/05/27 10:41:04;;;;;;;13.93;6.05;;;;;;;31.49;21.81;102329.53;5045138;28;20036;-83
2023/05/27 10:43:33;;;;;;;12.88;5.97;;;;;;;31.01;22.23;102341.53;5045314;28;20083;-82
2023/05/27 10:46:09;;;;;;;12.80;5.90;;;;;;;30.47;23.56;102333.03;5047269;28;20036;-83
2023/05/27 10:48:37;;;;;;;17.42;6.35;;;;;;;29.10;24.55;102327.91;5034161;28;20028;-83
2023/05/27 10:51:03;;;;;;;12.68;6.18;;;;;;;27.51;26.30;102319.69;5052880;28;20021;-82
2023/05/27 10:53:29;;;;;;;14.05;5.75;;;;;;;26.76;28.49;102324.31;5054582;28;20234;-82
2023/05/27 10:55:58;;;;;;;10.65;6.25;;;;;;;26.08;28.79;102314.31;5050268;28;20029;-82
2023/05/27 10:58:23;;;;;;;15.63;6.28;;;;;;;25.54;29.45;102315.69;5044898;28;20028;-82
2023/05/27 11:00:52;;;;;;;12.25;6.10;;;;;;;25.08;30.21;102308.00;5043044;28;20043;-81
2023/05/27 11:03:23;;;;;;;13.77;6.07;;;;;;;24.82;31.53;102303.03;5025163;28;20057;-82
2023/05/27 11:06:05;;;;;;;12.13;5.57;;;;;;;25.08;30.46;102297.13;5046694;28;20110;-81
2023/05/27 11:08:34;;;;;;;15.32;6.22;;;;;;;24.63;29.93;102299.38;5042705;28;20024;-81
2023/05/27 11:11:09;;;;;;;13.30;5.80;;;;;;;24.36;30.69;102309.75;5023279;28;20017;-82
2023/05/27 11:13:36;;;;;;;11.23;5.18;;;;;;;23.77;30.61;102295.81;5051037;28;20048;-83
2023/05/27 11:16:04;;;;;;;12.80;5.68;;;;;;;23.47;31.83;102291.03;5047039;28;20082;-82
2023/05/27 11:18:40;;;;;;;10.10;5.43;;;;;;;23.51;32.49;102292.53;5045621;28;20036;-82